createdAt,value
2019-02-21T00:07:38.149Z,78.68
2019-02-21T00:12:42.305Z,80.12
2019-02-21T00:17:46.414Z,81.55
2019-02-21T00:22:50.404Z,83.02
2019-02-21T00:28:01.602Z,84.00
2019-02-21T00:33:05.602Z,83.63
2019-02-21T00:38:10.099Z,82.66
2019-02-21T00:43:14.197Z,81.57
2019-02-21T00:48:18.239Z,80.69
2019-02-21T00:53:22.298Z,80.85
2019-02-21T00:58:26.401Z,80.77
2019-02-21T01:03:30.482Z,80.30
2019-02-21T01:08:34.560Z,81.22
2019-02-21T01:24:09.464Z,81.52
2019-02-21T01:29:14.081Z,81.43
2019-02-21T01:34:18.267Z,81.54
2019-02-21T01:39:22.303Z,82.04
2019-02-21T01:44:26.454Z,79.55
2019-02-21T01:49:31.388Z,79.97
2019-02-21T01:54:35.435Z,80.37
2019-02-21T01:59:39.520Z,79.73
2019-02-21T02:04:43.568Z,80.54
2019-02-21T02:09:58.940Z,80.70
2019-02-21T02:15:03.104Z,80.05
2019-02-21T02:20:07.289Z,79.58
2019-02-21T02:25:11.388Z,80.44
2019-02-21T02:30:15.786Z,80.04
2019-02-21T02:35:19.901Z,80.63
2019-02-21T02:40:24.190Z,80.19
2019-02-21T02:45:28.351Z,80.42
2019-02-21T02:50:43.611Z,79.53
2019-02-21T02:55:47.687Z,78.90
2019-02-21T03:01:05.987Z,80.03
2019-02-21T03:06:06.860Z,80.46
2019-02-21T03:11:10.955Z,80.36
2019-02-21T03:16:15.036Z,80.25
2019-02-21T03:21:19.104Z,80.25
2019-02-21T03:26:23.570Z,80.96
2019-02-21T03:31:27.671Z,81.07
2019-02-21T03:36:31.746Z,81.37
2019-02-21T03:41:41.690Z,81.47
2019-02-21T03:46:45.827Z,81.98
2019-02-21T03:51:49.928Z,81.20
2019-02-21T03:56:53.984Z,81.49
2019-02-21T04:02:05.139Z,80.60
2019-02-21T04:07:10.179Z,80.98
2019-02-21T04:12:14.735Z,81.20
2019-02-21T04:17:18.890Z,81.21
2019-02-21T04:22:23.069Z,81.83
2019-02-21T04:27:27.136Z,82.50
2019-02-21T04:32:31.357Z,83.42
2019-02-21T04:37:35.385Z,82.67
2019-02-21T04:42:39.928Z,82.71
2019-02-21T04:47:44.232Z,82.65
2019-02-21T04:52:59.652Z,81.64
2019-02-21T04:58:03.812Z,81.21
2019-02-21T05:03:08.026Z,80.30
2019-02-21T05:08:12.505Z,80.54
2019-02-21T05:13:17.660Z,80.71
2019-02-21T05:18:25.103Z,80.38
2019-02-21T05:23:30.125Z,81.07
2019-02-21T05:28:34.301Z,80.58
2019-02-21T05:33:38.495Z,82.45
2019-02-21T05:38:44.170Z,83.19
2019-02-21T05:43:48.429Z,86.24
2019-02-21T05:48:52.647Z,86.54
2019-02-21T05:53:56.858Z,87.90
2019-02-21T05:59:00.965Z,89.33
2019-02-21T06:04:05.121Z,90.25
2019-02-21T06:09:09.282Z,90.57
2019-02-21T06:14:13.341Z,90.34
2019-02-21T06:19:17.515Z,91.17
2019-02-21T06:24:22.536Z,91.59
2019-02-21T06:29:26.692Z,90.95
2019-02-21T06:34:31.734Z,90.50
2019-02-21T06:39:36.953Z,90.01
2019-02-21T06:44:41.185Z,90.04
2019-02-21T06:49:45.430Z,88.67
2019-02-21T06:54:49.552Z,88.88
2019-02-21T06:59:53.758Z,87.40
2019-02-21T07:04:58.245Z,86.50
2019-02-21T07:10:03.668Z,85.52
2019-02-21T07:15:09.440Z,84.88
2019-02-21T07:20:14.094Z,84.98
2019-02-21T07:25:18.439Z,84.13
2019-02-21T07:30:23.220Z,83.30
2019-02-21T07:35:27.461Z,83.70
2019-02-21T07:40:31.987Z,82.82
2019-02-21T07:45:36.569Z,81.77
2019-02-21T07:50:41.020Z,80.63
2019-02-21T07:55:45.306Z,80.63
2019-02-21T08:00:49.388Z,82.53
2019-02-21T08:05:53.487Z,84.07
2019-02-21T08:10:57.556Z,84.52
2019-02-21T08:16:01.804Z,84.48
2019-02-21T08:21:05.899Z,83.62
2019-02-21T08:26:10.054Z,83.66
2019-02-21T08:31:14.079Z,83.54
2019-02-21T08:36:18.238Z,84.21
2019-02-21T08:41:22.317Z,85.75
2019-02-21T08:46:26.383Z,87.52
2019-02-21T08:51:30.505Z,87.04
2019-02-21T08:56:34.730Z,87.89
2019-02-21T09:01:38.827Z,87.22
2019-02-21T09:06:42.865Z,87.40
2019-02-21T09:11:46.957Z,87.34
2019-02-21T09:16:51.768Z,86.46
2019-02-21T09:21:55.858Z,86.54
2019-02-21T09:27:02.113Z,88.17
2019-02-21T09:32:07.035Z,89.47
2019-02-21T09:37:11.622Z,88.82
2019-02-21T09:42:15.769Z,87.16
2019-02-21T09:47:20.008Z,86.46
2019-02-21T09:52:24.234Z,83.55
2019-02-21T09:57:28.606Z,83.34
2019-02-21T10:02:32.695Z,82.08
2019-02-21T10:07:37.327Z,79.94
2019-02-21T10:12:41.817Z,78.64
2019-02-21T10:17:50.806Z,79.28
2019-02-21T10:22:54.706Z,76.81
2019-02-21T10:27:59.259Z,76.81
2019-02-21T10:33:03.577Z,75.22
2019-02-21T10:38:07.667Z,71.01
2019-02-21T10:43:11.835Z,71.67
2019-02-21T10:48:16.020Z,71.42
2019-02-21T10:53:20.488Z,70.69
2019-02-21T10:58:24.671Z,70.42
2019-02-21T11:03:28.771Z,68.03
2019-02-21T11:08:32.880Z,66.66
2019-02-21T11:13:36.913Z,66.00
2019-02-21T11:18:41.311Z,59.70
2019-02-21T11:23:45.367Z,59.32
2019-02-21T11:28:49.423Z,62.38
2019-02-21T11:33:53.503Z,64.42
2019-02-21T11:38:57.602Z,62.90
2019-02-21T11:44:01.643Z,64.06
2019-02-21T11:49:05.784Z,62.15
2019-02-21T11:54:09.864Z,63.04
2019-02-21T11:59:16.034Z,62.18
2019-02-21T12:04:25.094Z,61.56
2019-02-21T12:09:29.113Z,60.99
2019-02-21T12:14:33.180Z,60.32
2019-02-21T12:19:37.243Z,60.16
2019-02-21T12:24:41.310Z,58.36
2019-02-21T12:29:45.426Z,58.89
2019-02-21T12:40:16.717Z,59.92
2019-02-21T12:45:40.039Z,61.71
2019-02-21T12:50:44.727Z,59.58
2019-02-21T12:55:55.634Z,58.58
2019-02-21T13:00:59.688Z,59.63
2019-02-21T13:11:22.837Z,63.83
2019-02-21T13:16:26.896Z,63.49
2019-02-21T13:21:50.496Z,65.00
2019-02-21T13:26:54.561Z,64.74
2019-02-21T13:31:58.717Z,64.86
2019-02-21T13:37:28.665Z,64.92
2019-02-21T13:42:51.922Z,64.31
2019-02-21T13:47:56.456Z,63.53
2019-02-21T13:53:00.556Z,63.10
2019-02-21T13:58:24.679Z,63.25
2019-02-21T14:03:28.819Z,64.37
2019-02-21T14:08:34.764Z,62.99
2019-02-21T14:13:39.366Z,63.84
2019-02-21T14:18:43.477Z,64.20
2019-02-21T14:23:47.532Z,66.57
2019-02-21T14:28:51.942Z,67.30
2019-02-21T14:33:56.057Z,68.28
2019-02-21T14:39:00.181Z,69.33
2019-02-21T14:49:20.254Z,72.13
2019-02-21T14:54:24.655Z,72.96
2019-02-21T14:59:29.013Z,74.39
2019-02-21T15:10:34.325Z,77.51
2019-02-21T15:15:38.461Z,78.47
2019-02-21T15:20:43.557Z,80.88
2019-02-21T15:25:53.715Z,82.81
2019-02-21T15:31:16.881Z,83.79
2019-02-21T15:36:39.985Z,83.62
2019-02-21T15:47:20.694Z,85.35
2019-02-21T15:52:25.636Z,87.01
2019-02-21T15:57:29.691Z,88.58
2019-02-21T16:02:33.768Z,88.57
2019-02-21T16:07:38.630Z,89.63
2019-02-21T16:12:43.388Z,90.00
2019-02-21T16:17:54.981Z,90.71
2019-02-21T16:22:59.083Z,90.66
2019-02-21T16:28:03.304Z,91.18
2019-02-21T16:33:07.409Z,91.12
2019-02-21T16:38:11.494Z,91.79
2019-02-21T16:43:15.690Z,92.57
2019-02-21T16:48:19.863Z,92.85
2019-02-21T16:53:23.948Z,92.87
2019-02-21T16:58:28.522Z,93.57
2019-02-21T17:03:32.638Z,93.27
2019-02-21T17:08:36.821Z,93.22
2019-02-21T17:13:40.937Z,93.27
2019-02-21T17:18:45.118Z,92.44
2019-02-21T17:23:49.251Z,91.17
2019-02-21T17:28:53.304Z,90.00
2019-02-21T17:33:59.388Z,90.29
2019-02-21T17:39:05.914Z,88.89
2019-02-21T17:44:14.917Z,88.87
2019-02-21T17:49:20.441Z,88.45
2019-02-21T17:54:27.627Z,88.01
2019-02-21T17:59:33.438Z,87.96
2019-02-21T18:04:38.852Z,88.25
2019-02-21T18:09:44.004Z,88.85
2019-02-21T18:14:48.393Z,91.70
2019-02-21T18:19:52.517Z,96.78
2019-02-21T18:24:58.918Z,100.00
2019-02-21T18:30:03.593Z,100.00
2019-02-21T18:35:08.204Z,100.00
2019-02-21T18:40:17.356Z,100.00
2019-02-21T18:45:19.638Z,100.00
2019-02-21T18:50:23.707Z,100.00
2019-02-21T18:55:28.051Z,100.00
2019-02-21T19:00:32.124Z,100.00
2019-02-21T19:05:54.185Z,100.00
2019-02-21T19:10:58.747Z,100.00
2019-02-21T19:16:03.210Z,100.00
2019-02-21T19:21:07.985Z,100.00
2019-02-21T19:26:12.253Z,100.00
2019-02-21T19:31:18.899Z,100.00
2019-02-21T19:36:23.012Z,100.00
2019-02-21T19:41:28.251Z,100.00
2019-02-21T19:46:35.586Z,100.00
2019-02-21T19:51:41.499Z,100.00
2019-02-21T19:56:47.496Z,100.00
2019-02-21T20:01:53.827Z,100.00
2019-02-21T20:07:01.111Z,100.00
2019-02-21T20:12:07.028Z,100.00
2019-02-21T20:17:13.124Z,100.00
2019-02-21T20:22:22.104Z,100.00
2019-02-21T20:27:27.196Z,100.00
2019-02-21T20:32:33.616Z,100.00
2019-02-21T20:37:42.201Z,100.00
2019-02-21T20:42:48.479Z,100.00
2019-02-21T20:47:55.068Z,100.00
2019-02-21T20:53:18.397Z,100.00
2019-02-21T20:58:23.126Z,100.00
2019-02-21T21:03:28.443Z,100.00
2019-02-21T21:08:42.717Z,100.00
2019-02-21T21:13:39.586Z,100.00
2019-02-21T21:18:44.351Z,100.00
2019-02-21T21:23:49.108Z,100.00
2019-02-21T21:28:53.856Z,100.00
2019-02-21T21:34:00.538Z,100.00
2019-02-21T21:39:06.649Z,100.00
2019-02-21T21:44:10.800Z,100.00
2019-02-21T21:49:15.980Z,100.00
2019-02-21T21:54:20.126Z,100.00
2019-02-21T21:59:24.276Z,100.00
2019-02-21T22:04:28.560Z,100.00
2019-02-21T22:09:32.798Z,100.00
2019-02-21T22:14:55.914Z,100.00
2019-02-21T22:20:07.272Z,100.00
2019-02-21T22:30:46.748Z,100.00
2019-02-21T22:35:51.479Z,100.00
2019-02-21T22:41:01.883Z,100.00
2019-02-21T22:46:07.708Z,100.00
2019-02-21T22:51:11.807Z,100.00
2019-02-21T22:56:15.992Z,100.00
2019-02-21T23:07:36.697Z,100.00
2019-02-21T23:12:40.810Z,100.00
2019-02-21T23:18:05.775Z,100.00
2019-02-21T23:23:09.907Z,100.00
2019-02-21T23:33:29.440Z,100.00
2019-02-21T23:38:33.559Z,100.00
2019-02-21T23:43:37.631Z,100.00
2019-02-21T23:48:41.677Z,100.00
2019-02-21T23:53:46.075Z,100.00
